createdAt,value
2023-04-17T00:02:07.706Z,11.26
2023-04-17T00:04:35.581Z,10.73
2023-04-17T00:07:02.098Z,10.37
2023-04-17T00:09:28.525Z,10.62
2023-04-17T00:11:55.022Z,10.74
2023-04-17T00:14:21.652Z,11.17
2023-04-17T00:16:48.147Z,11.43
2023-04-17T00:19:14.722Z,11.85
2023-04-17T00:21:42.410Z,11.66
2023-04-17T00:24:08.830Z,11.22
2023-04-17T00:26:35.243Z,10.49
2023-04-17T00:29:01.717Z,10.92
2023-04-17T00:31:28.132Z,11.27
2023-04-17T00:33:54.522Z,11.23
2023-04-17T00:36:20.935Z,10.08
2023-04-17T00:38:48.796Z,10.89
2023-04-17T00:41:15.264Z,11.04
2023-04-17T00:43:41.634Z,11.36
2023-04-17T00:46:08.440Z,11.08
2023-04-17T00:48:36.756Z,11.26
2023-04-17T00:51:03.596Z,11.41
2023-04-17T00:53:31.304Z,11.12
2023-04-17T00:56:00.510Z,11.09
2023-04-17T00:58:27.792Z,11.14
2023-04-17T01:00:54.477Z,11.15
2023-04-17T01:03:21.307Z,11.33
2023-04-17T01:05:50.416Z,11.27
2023-04-17T01:08:17.440Z,11.14
2023-04-17T01:10:43.825Z,10.98
2023-04-17T01:13:11.637Z,10.38
2023-04-17T01:15:38.027Z,11.14
2023-04-17T01:18:05.555Z,11.12
2023-04-17T01:20:32.400Z,11.04
2023-04-17T01:22:59.228Z,11.30
2023-04-17T01:25:28.145Z,10.82
2023-04-17T01:27:54.930Z,10.95
2023-04-17T01:30:21.716Z,11.12
2023-04-17T01:32:48.188Z,10.82
2023-04-17T01:35:14.646Z,10.52
2023-04-17T01:37:41.071Z,10.80
2023-04-17T01:40:08.637Z,10.90
2023-04-17T01:42:36.456Z,11.21
2023-04-17T01:45:05.628Z,11.07
2023-04-17T01:47:32.076Z,10.95
2023-04-17T01:49:58.492Z,9.97
2023-04-17T01:52:25.080Z,10.27
2023-04-17T01:54:51.534Z,10.68
2023-04-17T01:57:17.932Z,10.63
2023-04-17T01:59:45.683Z,10.83
2023-04-17T02:02:12.237Z,10.38
2023-04-17T02:04:38.877Z,10.73
2023-04-17T02:07:05.306Z,10.87
2023-04-17T02:09:31.690Z,10.87
2023-04-17T02:11:58.084Z,10.92
2023-04-17T02:14:25.088Z,10.52
2023-04-17T02:16:52.778Z,10.76
2023-04-17T02:19:19.183Z,10.90
2023-04-17T02:21:45.601Z,10.88
2023-04-17T02:24:12.064Z,10.78
2023-04-17T02:26:38.637Z,10.34
2023-04-17T02:29:05.036Z,10.72
2023-04-17T02:31:31.573Z,10.85
2023-04-17T02:33:59.387Z,10.60
2023-04-17T02:36:25.887Z,10.34
2023-04-17T02:38:52.302Z,10.42
2023-04-17T02:41:18.709Z,10.52
2023-04-17T02:43:45.257Z,10.51
2023-04-17T02:46:11.663Z,10.75
2023-04-17T02:48:38.039Z,10.79
2023-04-17T02:51:05.928Z,10.76
2023-04-17T02:53:32.293Z,10.65
2023-04-17T02:55:58.636Z,10.82
2023-04-17T02:58:25.218Z,10.49
2023-04-17T03:00:51.677Z,10.62
2023-04-17T03:03:18.186Z,10.57
2023-04-17T03:05:44.724Z,10.41
2023-04-17T03:08:12.437Z,10.46
2023-04-17T03:10:38.834Z,10.40
2023-04-17T03:13:05.211Z,10.52
2023-04-17T03:15:31.554Z,10.39
2023-04-17T03:17:57.968Z,10.48
2023-04-17T03:20:24.459Z,10.61
2023-04-17T03:22:50.818Z,10.33
2023-04-17T03:25:18.612Z,10.29
2023-04-17T03:27:44.998Z,10.31
2023-04-17T03:30:12.246Z,10.31
2023-04-17T03:32:38.718Z,10.44
2023-04-17T03:35:05.505Z,10.15
2023-04-17T03:37:31.891Z,10.03
2023-04-17T03:39:58.272Z,10.22
2023-04-17T03:42:26.543Z,10.46
2023-04-17T03:44:52.986Z,10.30
2023-04-17T03:47:19.349Z,10.28
2023-04-17T03:49:45.906Z,10.23
2023-04-17T03:52:12.615Z,10.27
2023-04-17T03:54:39.034Z,10.33
2023-04-17T03:57:05.481Z,10.20
2023-04-17T03:59:33.262Z,9.31
2023-04-17T04:01:59.860Z,9.41
2023-04-17T04:04:26.510Z,9.18
2023-04-17T04:06:53.151Z,9.27
2023-04-17T04:09:19.718Z,8.64
2023-04-17T04:11:46.107Z,9.39
2023-04-17T04:14:12.467Z,8.84
2023-04-17T04:16:40.222Z,9.40
2023-04-17T04:19:06.592Z,9.74
2023-04-17T04:21:32.978Z,9.92
2023-04-17T04:23:59.333Z,9.63
2023-04-17T04:26:25.911Z,9.58
2023-04-17T04:28:52.297Z,9.72
2023-04-17T04:31:19.410Z,9.90
2023-04-17T04:33:47.201Z,9.95
2023-04-17T04:36:13.603Z,10.10
2023-04-17T04:38:39.982Z,9.92
2023-04-17T04:41:06.688Z,10.09
2023-04-17T04:43:33.747Z,9.91
2023-04-17T04:46:00.132Z,10.15
2023-04-17T04:48:26.704Z,10.12
2023-04-17T04:50:54.592Z,10.27
2023-04-17T04:53:21.068Z,10.20
2023-04-17T04:55:47.446Z,10.53
2023-04-17T04:58:13.904Z,10.12
2023-04-17T05:00:40.383Z,10.40
2023-04-17T05:03:06.973Z,10.26
2023-04-17T05:05:33.750Z,10.38
2023-04-17T05:08:01.787Z,10.07
2023-04-17T05:10:28.203Z,10.17
2023-04-17T05:12:54.584Z,10.24
2023-04-17T05:15:21.240Z,10.33
2023-04-17T05:17:47.695Z,10.26
2023-04-17T05:20:14.060Z,10.13
2023-04-17T05:22:40.744Z,10.21
2023-04-17T05:25:09.057Z,10.35
2023-04-17T05:27:35.925Z,10.46
2023-04-17T05:30:02.305Z,10.30
2023-04-17T05:32:28.798Z,10.57
2023-04-17T05:34:55.250Z,10.35
2023-04-17T05:37:21.634Z,10.33
2023-04-17T05:39:48.001Z,10.41
2023-04-17T05:42:15.651Z,10.74
2023-04-17T05:44:42.011Z,10.96
2023-04-17T05:47:08.446Z,10.72
2023-04-17T05:49:34.798Z,10.73
2023-04-17T05:52:01.169Z,10.89
2023-04-17T05:54:27.580Z,10.90
2023-04-17T05:56:53.968Z,11.03
2023-04-17T05:59:21.665Z,10.76
2023-04-17T06:01:48.170Z,10.95
2023-04-17T06:04:14.920Z,11.14
2023-04-17T06:06:41.600Z,11.42
2023-04-17T06:09:07.980Z,11.24
2023-04-17T06:11:34.359Z,11.30
2023-04-17T06:14:00.839Z,11.17
2023-04-17T06:16:28.643Z,12.42
2023-04-17T06:18:55.060Z,11.61
2023-04-17T06:21:21.496Z,11.37
2023-04-17T06:23:48.133Z,11.56
2023-04-17T06:26:14.493Z,11.58
2023-04-17T06:28:40.848Z,12.16
2023-04-17T06:31:07.329Z,12.23
2023-04-17T06:33:35.043Z,12.40
2023-04-17T06:36:01.419Z,13.69
2023-04-17T06:38:28.006Z,12.94
2023-04-17T06:40:54.390Z,12.47
2023-04-17T06:43:20.805Z,12.55
2023-04-17T06:45:47.838Z,12.53
2023-04-17T06:48:14.246Z,13.08
2023-04-17T06:50:42.042Z,13.01
2023-04-17T06:53:08.407Z,12.66
2023-04-17T06:55:34.820Z,13.18
2023-04-17T06:58:01.246Z,13.25
2023-04-17T07:00:27.913Z,13.94
2023-04-17T07:02:54.423Z,13.92
2023-04-17T07:05:20.892Z,14.03
2023-04-17T07:07:48.581Z,13.95
2023-04-17T07:10:14.930Z,14.04
2023-04-17T07:12:41.342Z,14.33
2023-04-17T07:15:09.278Z,14.30
2023-04-17T07:17:35.726Z,14.51
2023-04-17T07:20:02.231Z,14.24
2023-04-17T07:22:28.705Z,15.38
2023-04-17T07:24:56.442Z,14.81
2023-04-17T07:27:22.832Z,15.08
2023-04-17T07:29:49.252Z,14.36
2023-04-17T07:32:15.860Z,14.41
2023-04-17T07:34:42.230Z,14.12
2023-04-17T07:37:08.778Z,14.00
2023-04-17T07:39:35.164Z,13.13
2023-04-17T07:42:02.861Z,12.54
2023-04-17T07:44:29.423Z,13.02
2023-04-17T07:46:55.919Z,14.51
2023-04-17T07:49:22.344Z,14.77
2023-04-17T07:51:48.736Z,13.78
2023-04-17T07:54:15.120Z,13.52
2023-04-17T07:56:41.464Z,13.89
2023-04-17T07:59:09.164Z,14.48
2023-04-17T08:01:35.555Z,15.03
2023-04-17T08:04:02.361Z,15.54
2023-04-17T08:06:29.138Z,14.52
2023-04-17T08:08:55.563Z,13.94
2023-04-17T08:11:22.009Z,14.75
2023-04-17T08:13:48.410Z,15.01
2023-04-17T08:16:16.226Z,15.97
2023-04-17T08:18:42.647Z,16.31
2023-04-17T08:21:09.171Z,15.05
2023-04-17T08:23:35.607Z,17.20
2023-04-17T08:26:01.958Z,18.03
2023-04-17T08:28:28.341Z,18.86
2023-04-17T08:30:54.755Z,17.17
2023-04-17T08:33:22.638Z,16.96
2023-04-17T08:35:49.065Z,18.18
2023-04-17T08:38:15.458Z,14.87
2023-04-17T08:40:42.440Z,13.97
2023-04-17T08:43:14.055Z,14.02
2023-04-17T08:45:46.642Z,14.95
2023-04-17T08:48:13.474Z,15.87
2023-04-17T08:50:45.533Z,18.77
2023-04-17T08:53:11.902Z,19.47
2023-04-17T08:55:38.273Z,17.87
2023-04-17T08:58:05.162Z,15.48
2023-04-17T09:00:32.951Z,15.14
2023-04-17T09:03:01.762Z,15.38
2023-04-17T09:05:29.735Z,15.31
2023-04-17T09:08:09.316Z,15.95
2023-04-17T09:10:36.776Z,16.58
2023-04-17T09:13:03.292Z,18.93
2023-04-17T09:15:29.803Z,21.42
2023-04-17T09:17:56.190Z,20.02
2023-04-17T09:20:22.814Z,20.84
2023-04-17T09:22:58.895Z,20.80
2023-04-17T09:25:26.598Z,23.03
2023-04-17T09:27:52.987Z,25.20
2023-04-17T09:30:19.741Z,22.24
2023-04-17T09:32:46.175Z,20.27
2023-04-17T09:35:23.714Z,19.19
2023-04-17T09:37:51.754Z,18.25
2023-04-17T09:40:21.705Z,16.68
2023-04-17T09:42:57.938Z,18.11
2023-04-17T09:45:26.262Z,19.62
2023-04-17T09:47:52.685Z,19.19
2023-04-17T09:50:19.481Z,19.37
2023-04-17T09:52:46.424Z,19.10
2023-04-17T09:55:14.118Z,18.09
2023-04-17T09:57:42.795Z,18.88
2023-04-17T10:00:13.906Z,18.73
2023-04-17T10:02:44.067Z,18.51
2023-04-17T10:05:10.847Z,17.93
2023-04-17T10:07:37.851Z,18.42
2023-04-17T10:10:05.057Z,15.49
2023-04-17T10:12:32.875Z,16.61
2023-04-17T10:15:00.422Z,16.03
2023-04-17T10:17:30.160Z,15.52
2023-04-17T10:19:56.913Z,16.85
2023-04-17T10:22:30.707Z,16.46
2023-04-17T10:25:23.360Z,15.81
2023-04-17T10:27:52.364Z,15.46
2023-04-17T10:33:23.000Z,15.68
2023-04-17T10:35:49.515Z,15.39
2023-04-17T10:38:16.044Z,15.71
2023-04-17T10:40:43.845Z,18.34
2023-04-17T10:43:12.403Z,18.45
2023-04-17T10:45:53.599Z,18.99
2023-04-17T10:48:27.400Z,15.97
2023-04-17T10:50:54.066Z,17.11
2023-04-17T10:53:42.319Z,17.54
2023-04-17T10:56:10.132Z,18.46
2023-04-17T10:58:38.474Z,18.18
2023-04-17T11:01:09.976Z,17.74
2023-04-17T11:03:38.591Z,17.33
2023-04-17T11:06:06.161Z,18.11
2023-04-17T11:08:32.662Z,19.10
2023-04-17T11:10:59.072Z,16.53
2023-04-17T11:13:25.506Z,16.16
2023-04-17T11:15:52.150Z,16.30
2023-04-17T11:18:20.647Z,17.03
2023-04-17T11:20:48.502Z,15.49
2023-04-17T11:23:16.152Z,16.01
2023-04-17T11:25:43.821Z,15.52
2023-04-17T11:28:11.490Z,14.85
2023-04-17T11:30:39.425Z,15.31
2023-04-17T11:33:07.766Z,15.07
2023-04-17T11:35:36.790Z,15.22
2023-04-17T11:38:12.805Z,15.93
2023-04-17T11:40:47.361Z,17.17
2023-04-17T11:43:13.818Z,16.13
2023-04-17T11:45:43.831Z,17.17
2023-04-17T11:48:11.563Z,17.68
2023-04-17T11:50:39.457Z,17.32
2023-04-17T11:53:06.962Z,16.91
2023-04-17T11:55:34.690Z,17.85
2023-04-17T11:58:03.092Z,17.74
2023-04-17T12:00:30.053Z,17.43
2023-04-17T12:02:57.502Z,17.54
2023-04-17T12:05:25.372Z,16.79
2023-04-17T12:08:05.852Z,17.78
2023-04-17T12:10:41.432Z,18.59
2023-04-17T12:13:08.006Z,16.51
2023-04-17T12:15:34.500Z,16.53
2023-04-17T12:18:01.599Z,16.95
2023-04-17T12:20:28.172Z,15.26
2023-04-17T12:22:54.738Z,15.35
2023-04-17T12:25:21.116Z,14.74
2023-04-17T12:27:49.449Z,16.44
2023-04-17T12:30:15.955Z,17.13
2023-04-17T12:32:42.700Z,17.62
2023-04-17T12:35:09.653Z,15.65
2023-04-17T12:37:36.068Z,15.93
2023-04-17T12:40:02.556Z,15.77
2023-04-17T12:42:31.470Z,15.79
2023-04-17T12:45:01.543Z,16.26
2023-04-17T12:47:28.456Z,16.53
2023-04-17T12:49:54.914Z,16.47
2023-04-17T12:52:21.340Z,17.35
2023-04-17T12:54:47.937Z,16.63
2023-04-17T12:57:14.426Z,16.57
2023-04-17T12:59:40.860Z,17.05
2023-04-17T13:02:08.748Z,17.13
2023-04-17T13:04:35.258Z,17.98
2023-04-17T13:07:01.851Z,16.39
2023-04-17T13:09:28.292Z,17.13
2023-04-17T13:11:54.698Z,15.63
2023-04-17T13:14:21.136Z,16.54
2023-04-17T13:16:47.599Z,16.40
2023-04-17T13:19:15.519Z,17.67
2023-04-17T13:21:42.041Z,17.87
2023-04-17T13:24:08.893Z,17.47
2023-04-17T13:26:36.370Z,18.15
2023-04-17T13:29:03.403Z,17.15
2023-04-17T13:31:29.842Z,16.34
2023-04-17T13:33:56.343Z,16.78
2023-04-17T13:36:24.122Z,16.16
2023-04-17T13:38:50.520Z,17.02
2023-04-17T13:41:16.916Z,15.75
2023-04-17T13:43:43.300Z,16.27
2023-04-17T13:46:10.043Z,16.07
2023-04-17T13:48:36.538Z,17.66
2023-04-17T13:51:03.041Z,16.03
2023-04-17T13:53:30.772Z,15.59
2023-04-17T13:55:57.437Z,15.69
2023-04-17T13:58:23.925Z,15.53
2023-04-17T14:00:50.576Z,16.44
2023-04-17T14:03:17.175Z,15.46
2023-04-17T14:05:43.773Z,15.80
2023-04-17T14:08:10.684Z,15.63
2023-04-17T14:10:38.396Z,16.03
2023-04-17T14:13:04.818Z,16.05
2023-04-17T14:15:31.239Z,15.87
2023-04-17T14:17:57.728Z,15.84
2023-04-17T14:20:24.584Z,16.20
2023-04-17T14:22:51.251Z,15.59
2023-04-17T14:25:17.688Z,16.56
2023-04-17T14:27:45.653Z,17.48
2023-04-17T14:30:12.859Z,16.72
2023-04-17T14:32:39.334Z,16.99
2023-04-17T14:35:06.609Z,17.59
2023-04-17T14:37:34.037Z,17.20
2023-04-17T14:40:00.603Z,16.90
2023-04-17T14:42:27.029Z,16.89
2023-04-17T14:44:54.881Z,15.75
2023-04-17T14:47:21.404Z,15.39
2023-04-17T14:49:47.850Z,15.98
2023-04-17T14:52:14.307Z,14.98
2023-04-17T14:54:40.743Z,15.15
2023-04-17T14:57:07.448Z,15.43
2023-04-17T14:59:34.360Z,16.17
2023-04-17T15:02:02.271Z,16.20
2023-04-17T15:04:28.814Z,16.50
2023-04-17T15:06:55.396Z,15.40
2023-04-17T15:09:21.787Z,15.36
2023-04-17T15:11:48.218Z,15.15
2023-04-17T15:14:14.646Z,15.32
2023-04-17T15:16:41.113Z,15.11
2023-04-17T15:19:09.029Z,15.20
2023-04-17T15:21:35.441Z,15.19
2023-04-17T15:24:01.827Z,15.23
2023-04-17T15:26:28.382Z,15.28
2023-04-17T15:28:54.864Z,15.40
2023-04-17T15:31:21.489Z,15.22
2023-04-17T15:33:47.886Z,15.26
2023-04-17T15:36:15.995Z,15.97
2023-04-17T15:38:42.392Z,16.46
2023-04-17T15:41:10.575Z,15.78
2023-04-17T15:43:37.752Z,15.09
2023-04-17T15:46:04.267Z,14.95
2023-04-17T15:48:30.723Z,15.19
2023-04-17T15:50:57.147Z,15.62
2023-04-17T15:53:24.848Z,15.94
2023-04-17T15:55:52.370Z,16.66
2023-04-17T15:58:18.764Z,16.38
2023-04-17T16:00:45.459Z,15.97
2023-04-17T16:03:12.076Z,16.73
2023-04-17T16:05:39.021Z,15.57
2023-04-17T16:08:05.629Z,14.96
2023-04-17T16:10:33.948Z,15.29
2023-04-17T16:13:00.649Z,15.02
2023-04-17T16:15:27.617Z,15.30
2023-04-17T16:17:54.047Z,15.21
2023-04-17T16:20:20.686Z,14.99
2023-04-17T16:22:47.093Z,14.85
2023-04-17T16:25:13.586Z,14.76
2023-04-17T16:27:41.334Z,14.88
2023-04-17T16:30:10.788Z,15.02
2023-04-17T16:32:37.515Z,15.27
2023-04-17T16:35:04.463Z,15.29
2023-04-17T16:37:30.877Z,15.13
2023-04-17T16:39:57.251Z,14.82
2023-04-17T16:42:23.728Z,14.38
2023-04-17T16:44:51.504Z,14.89
2023-04-17T16:47:18.015Z,15.64
2023-04-17T16:49:44.455Z,14.55
2023-04-17T16:52:10.866Z,14.57
2023-04-17T16:54:37.233Z,14.80
2023-04-17T16:57:04.041Z,14.66
2023-04-17T16:59:30.409Z,14.79
2023-04-17T17:02:00.051Z,14.54
2023-04-17T17:04:27.884Z,14.07
2023-04-17T17:06:54.266Z,14.10
2023-04-17T17:09:20.624Z,14.25
2023-04-17T17:11:47.418Z,14.20
2023-04-17T17:14:13.826Z,14.22
2023-04-17T17:16:40.331Z,13.99
2023-04-17T17:19:08.258Z,14.15
2023-04-17T17:21:34.629Z,14.60
2023-04-17T17:24:01.030Z,13.96
2023-04-17T17:26:27.583Z,14.27
2023-04-17T17:28:53.949Z,14.27
2023-04-17T17:31:21.221Z,14.43
2023-04-17T17:33:47.659Z,14.10
2023-04-17T17:36:15.350Z,13.77
2023-04-17T17:38:41.724Z,14.35
2023-04-17T17:41:08.220Z,13.81
2023-04-17T17:43:34.785Z,13.59
2023-04-17T17:46:01.207Z,13.42
2023-04-17T17:48:27.619Z,13.03
2023-04-17T17:50:54.844Z,12.87
2023-04-17T17:53:26.362Z,12.67
2023-04-17T17:55:54.314Z,12.47
2023-04-17T17:58:20.910Z,12.28
2023-04-17T18:00:47.430Z,12.15
2023-04-17T18:03:13.964Z,11.96
2023-04-17T18:05:40.707Z,11.90
2023-04-17T18:08:07.160Z,11.87
2023-04-17T18:10:35.469Z,11.85
2023-04-17T18:13:02.007Z,11.58
2023-04-17T18:15:28.447Z,11.54
2023-04-17T18:17:54.924Z,11.49
2023-04-17T18:20:21.731Z,11.43
2023-04-17T18:22:48.093Z,11.33
2023-04-17T18:25:14.841Z,11.18
2023-04-17T18:27:42.520Z,11.10
2023-04-17T18:30:09.693Z,10.88
2023-04-17T18:32:36.311Z,10.72
2023-04-17T18:35:02.730Z,10.59
2023-04-17T18:37:29.182Z,10.43
2023-04-17T18:39:55.662Z,10.56
2023-04-17T18:42:22.255Z,10.55
2023-04-17T18:44:49.991Z,10.21
2023-04-17T18:47:16.782Z,9.99
2023-04-17T18:49:43.227Z,10.02
2023-04-17T18:52:09.625Z,10.05
2023-04-17T18:54:36.379Z,9.94
2023-04-17T18:57:02.746Z,9.75
2023-04-17T18:59:29.124Z,9.90
2023-04-17T19:01:56.956Z,9.64
2023-04-17T19:04:23.421Z,9.42
2023-04-17T19:06:49.844Z,9.52
2023-04-17T19:09:16.277Z,9.61
2023-04-17T19:11:42.678Z,9.50
2023-04-17T19:14:09.120Z,9.78
2023-04-17T19:16:35.775Z,9.51
2023-04-17T19:19:03.526Z,9.31
2023-04-17T19:21:29.971Z,9.59
2023-04-17T19:23:56.410Z,9.45
2023-04-17T19:26:22.849Z,9.54
2023-04-17T19:28:49.692Z,9.35
2023-04-17T19:31:16.132Z,9.46
2023-04-17T19:33:42.562Z,9.27
2023-04-17T19:36:10.312Z,9.06
2023-04-17T19:38:36.791Z,9.63
2023-04-17T19:41:13.196Z,9.13
2023-04-17T19:43:39.789Z,9.06
2023-04-17T19:46:06.251Z,8.95
2023-04-17T19:48:32.631Z,9.16
2023-04-17T19:50:59.068Z,9.28
2023-04-17T19:53:28.745Z,9.26
2023-04-17T19:55:55.147Z,9.63
2023-04-17T19:58:21.657Z,9.46
2023-04-17T20:00:48.101Z,9.02
2023-04-17T20:03:14.602Z,8.98
2023-04-17T20:05:41.125Z,9.39
2023-04-17T20:08:07.548Z,9.34
2023-04-17T20:10:35.401Z,9.46
2023-04-17T20:13:01.926Z,9.30
2023-04-17T20:15:28.622Z,9.23
2023-04-17T20:17:55.050Z,9.13
2023-04-17T20:20:21.717Z,9.16
2023-04-17T20:22:48.469Z,8.87
2023-04-17T20:25:15.058Z,9.26
2023-04-17T20:27:42.869Z,9.23
2023-04-17T20:30:10.375Z,9.22
2023-04-17T20:32:36.827Z,9.09
2023-04-17T20:35:03.769Z,8.85
2023-04-17T20:37:30.388Z,8.99
2023-04-17T20:39:56.792Z,9.07
2023-04-17T20:42:23.360Z,9.32
2023-04-17T20:44:51.059Z,9.15
2023-04-17T20:47:17.502Z,9.41
2023-04-17T20:49:43.905Z,9.32
2023-04-17T20:52:10.260Z,9.33
2023-04-17T20:54:36.620Z,9.25
2023-04-17T20:57:03.241Z,9.53
2023-04-17T20:59:29.602Z,9.37
2023-04-17T21:01:57.416Z,9.46
2023-04-17T21:04:23.899Z,9.54
2023-04-17T21:06:50.311Z,9.36
2023-04-17T21:09:16.651Z,9.11
2023-04-17T21:11:43.158Z,9.16
2023-04-17T21:14:09.573Z,9.12
2023-04-17T21:16:35.997Z,9.35
2023-04-17T21:19:03.779Z,9.40
2023-04-17T21:21:30.181Z,9.29
2023-04-17T21:23:56.588Z,9.34
2023-04-17T21:26:23.124Z,9.64
2023-04-17T21:28:49.504Z,9.41
2023-04-17T21:31:15.971Z,9.35
2023-04-17T21:33:42.474Z,9.37
2023-04-17T21:36:10.214Z,9.51
2023-04-17T21:38:36.578Z,9.64
2023-04-17T21:41:03.157Z,9.47
2023-04-17T21:43:30.285Z,9.52
2023-04-17T21:45:56.836Z,9.23
2023-04-17T21:48:23.571Z,9.28
2023-04-17T21:50:50.027Z,9.08
2023-04-17T21:53:17.732Z,9.60
2023-04-17T21:55:44.121Z,9.17
2023-04-17T21:58:10.519Z,9.16
2023-04-17T22:00:36.934Z,9.21
2023-04-17T22:03:03.497Z,9.13
2023-04-17T22:05:29.897Z,9.14
2023-04-17T22:07:56.281Z,9.96
2023-04-17T22:10:24.382Z,9.14
2023-04-17T22:12:50.990Z,9.29
2023-04-17T22:15:17.591Z,8.95
2023-04-17T22:17:44.100Z,9.12
2023-04-17T22:20:11.596Z,8.89
2023-04-17T22:22:37.948Z,8.86
2023-04-17T22:25:05.260Z,8.97
2023-04-17T22:27:32.992Z,9.13
2023-04-17T22:29:59.371Z,9.13
2023-04-17T22:32:25.974Z,8.83
2023-04-17T22:34:52.400Z,8.83
2023-04-17T22:37:18.779Z,8.36
2023-04-17T22:39:45.170Z,8.79
2023-04-17T22:42:11.561Z,8.59
2023-04-17T22:44:39.253Z,8.52
2023-04-17T22:47:05.651Z,8.69
2023-04-17T22:49:32.028Z,8.66
2023-04-17T22:51:58.406Z,8.66
2023-04-17T22:54:24.978Z,9.50
2023-04-17T22:56:51.519Z,8.77
2023-04-17T22:59:17.890Z,8.49
2023-04-17T23:01:45.648Z,8.68
2023-04-17T23:04:12.301Z,8.45
2023-04-17T23:06:38.887Z,8.10
2023-04-17T23:09:05.304Z,8.48
2023-04-17T23:11:31.924Z,8.26
2023-04-17T23:13:58.340Z,8.41
2023-04-17T23:16:24.820Z,8.83
2023-04-17T23:18:52.586Z,8.59
2023-04-17T23:21:19.002Z,8.32
2023-04-17T23:23:48.172Z,8.44
2023-04-17T23:26:15.025Z,8.15
2023-04-17T23:28:41.403Z,8.17
2023-04-17T23:31:07.895Z,8.29
2023-04-17T23:33:34.310Z,8.06
2023-04-17T23:36:02.038Z,8.50
2023-04-17T23:38:28.609Z,7.92
2023-04-17T23:40:55.040Z,7.90
2023-04-17T23:43:21.412Z,8.09
2023-04-17T23:45:47.870Z,8.26
2023-04-17T23:48:14.252Z,8.09
2023-04-17T23:50:40.841Z,7.88
2023-04-17T23:53:08.563Z,7.70
2023-04-17T23:55:34.916Z,7.64
2023-04-17T23:58:01.274Z,7.51
